Time;durP1;ratioP1;P1;durP2;ratioP2;P2;SDS_P1;SDS_P2;PMS_P1;PMS_P2;Temp;Humidity;BMP_temperature;BMP_pressure;BME280_temperature;BME280_humidity;BME280_pressure;Samples;Min_cycle;Max_cycle;Signal;HPM_P1;HPM_P2
2022/11/15 00:01:33;;;;;;;53.20;28.90;;;6.30;99.90;;;6.13;69.22;95556.13;5006723;28;20453;-60
2022/11/15 00:04:00;;;;;;;55.00;28.40;;;6.30;99.90;;;6.11;69.53;95558.81;5000010;28;21005;-55
2022/11/15 00:06:28;;;;;;;57.70;28.30;;;6.30;99.90;;;6.08;69.51;95559.00;4999684;28;20466;-53
2022/11/15 00:08:55;;;;;;;48.17;27.23;;;6.30;99.90;;;6.07;69.43;95557.31;4998064;28;20516;-60
2022/11/15 00:11:22;;;;;;;52.83;25.90;;;6.20;99.90;;;6.06;70.00;95559.09;4997959;28;20493;-54
2022/11/15 00:13:49;;;;;;;50.77;25.73;;;6.20;99.90;;;6.05;69.71;95554.81;4995392;28;20473;-59
2022/11/15 00:16:17;;;;;;;49.93;24.30;;;6.20;99.90;;;6.03;69.42;95550.63;5001626;28;20453;-54
2022/11/15 00:18:45;;;;;;;48.93;27.27;;;6.20;99.90;;;6.00;69.58;95549.03;4997286;28;20466;-54
2022/11/15 00:21:14;;;;;;;48.07;27.10;;;6.20;99.90;;;5.99;69.57;95547.34;5000136;28;20461;-55
2022/11/15 00:23:42;;;;;;;43.37;25.13;;;6.20;99.90;;;5.97;69.19;95545.78;4996647;28;20473;-55
2022/11/15 00:26:12;;;;;;;45.27;25.07;;;6.10;99.90;;;5.95;69.60;95542.38;4996959;28;20533;-59
2022/11/15 00:28:39;;;;;;;41.43;24.13;;;6.10;99.90;;;5.93;69.57;95551.16;4998909;28;21081;-59
2022/11/15 00:31:08;;;;;;;54.00;25.20;;;6.10;99.90;;;5.91;69.10;95547.78;4998699;28;20497;-59
2022/11/15 00:33:35;;;;;;;51.33;25.27;;;6.10;99.90;;;5.89;69.60;95538.41;4995131;28;20465;-55
2022/11/15 00:36:05;;;;;;;50.97;27.23;;;6.10;99.90;;;5.87;69.57;95545.47;5000460;28;20501;-59
2022/11/15 00:38:33;;;;;;;44.60;24.77;;;6.00;99.90;;;5.87;69.70;95545.47;4994374;28;20449;-52
2022/11/15 00:41:01;;;;;;;57.57;27.27;;;6.00;99.90;;;5.84;69.60;95543.03;4998940;28;20560;-63
2022/11/15 00:43:28;;;;;;;51.93;25.10;;;6.00;99.90;;;5.84;69.65;95548.28;5000600;28;20524;-54
2022/11/15 00:45:55;;;;;;;54.53;26.53;;;6.00;99.90;;;5.83;69.28;95544.00;5000523;28;20512;-54
2022/11/15 00:48:23;;;;;;;67.30;29.70;;;5.90;99.90;;;5.81;69.32;95541.47;5002271;28;20465;-60
2022/11/15 00:50:50;;;;;;;58.80;29.40;;;6.00;99.90;;;5.79;69.45;95538.09;4996920;28;20911;-59
2022/11/15 00:53:19;;;;;;;62.70;31.67;;;6.00;99.90;;;5.79;69.79;95537.28;4999439;28;20458;-54
2022/11/15 00:55:47;;;;;;;64.60;33.40;;;6.00;99.90;;;5.78;70.02;95535.59;4996791;28;20493;-55
2022/11/15 00:58:14;;;;;;;69.40;33.07;;;5.90;99.90;;;5.76;69.64;95533.06;5002585;28;20458;-53
2022/11/15 01:00:41;;;;;;;65.30;32.07;;;5.90;99.90;;;5.74;69.92;95529.72;5002996;28;20477;-59
2022/11/15 01:03:08;;;;;;;86.57;35.00;;;5.90;99.90;;;5.73;69.94;95528.91;4998131;28;20488;-54
2022/11/15 01:05:38;;;;;;;62.50;32.77;;;5.90;99.90;;;5.72;70.00;95529.81;5003640;28;20885;-59
2022/11/15 01:08:05;;;;;;;56.37;31.13;;;5.90;99.90;;;5.70;69.99;95523.00;5000486;28;20454;-58
2022/11/15 01:10:34;;;;;;;64.80;33.17;;;5.90;99.90;;;5.69;69.33;95526.56;5002386;28;20934;-59
2022/11/15 01:13:01;;;;;;;64.80;33.00;;;5.80;99.90;;;5.66;69.80;95527.59;5001948;28;20496;-60
2022/11/15 01:15:29;;;;;;;55.07;32.00;;;5.80;99.90;;;5.64;69.94;95524.25;5000669;28;20493;-59
2022/11/15 01:17:56;;;;;;;65.00;31.00;;;5.80;99.90;;;5.63;70.10;95532.16;5000247;28;20461;-54
2022/11/15 01:20:23;;;;;;;65.70;34.90;;;5.80;99.90;;;5.61;70.01;95529.66;4993145;28;20478;-58
2022/11/15 01:22:50;;;;;;;67.20;32.33;;;5.80;99.90;;;5.61;70.11;95527.03;5000617;28;20458;-58
2022/11/15 01:25:18;;;;;;;68.13;31.43;;;5.80;99.90;;;5.60;70.13;95525.34;5000735;28;20493;-54
2022/11/15 01:27:46;;;;;;;69.40;33.03;;;5.80;99.90;;;5.59;70.12;95528.88;4994765;28;20632;-56
2022/11/15 01:30:14;;;;;;;57.77;30.67;;;5.80;99.90;;;5.59;69.62;95531.50;5004293;28;21468;-54
2022/11/15 01:32:41;;;;;;;66.87;30.07;;;5.80;99.90;;;5.58;69.98;95527.22;5004476;28;20500;-54
2022/11/15 01:35:09;;;;;;;59.27;31.53;;;5.80;99.90;;;5.58;69.90;95516.78;5004935;28;21086;-54
2022/11/15 01:37:36;;;;;;;51.40;28.00;;;5.80;99.90;;;5.59;70.04;95525.44;5004887;28;20910;-59
2022/11/15 01:40:04;;;;;;;72.60;32.73;;;5.70;99.90;;;5.60;70.59;95521.91;5006512;28;20474;-53
2022/11/15 01:42:31;;;;;;;61.70;31.70;;;5.80;99.90;;;5.60;69.90;95517.53;5008291;28;20461;-55
2022/11/15 01:45:00;;;;;;;65.90;30.27;;;5.80;99.90;;;5.62;70.09;95514.81;5004639;28;20582;-60
2022/11/15 01:47:29;;;;;;;59.33;30.67;;;5.80;99.90;;;5.61;70.50;95516.59;5003354;28;20465;-58
2022/11/15 01:49:58;;;;;;;63.53;32.03;;;5.80;99.90;;;5.61;70.25;95518.34;4997880;28;20485;-54
2022/11/15 01:52:27;;;;;;;65.37;30.17;;;5.80;99.90;;;5.61;70.44;95518.34;5005551;28;20505;-59
2022/11/15 01:54:57;;;;;;;59.83;31.20;;;5.80;99.90;;;5.59;70.14;95518.44;5006180;28;20870;-59
2022/11/15 01:57:25;;;;;;;58.33;30.63;;;5.80;99.90;;;5.58;70.04;95514.19;5009173;28;20521;-59
2022/11/15 01:59:52;;;;;;;55.97;28.77;;;5.70;99.90;;;5.57;70.12;95518.53;5008444;28;20473;-54
2022/11/15 02:02:21;;;;;;;52.33;28.77;;;5.70;99.90;;;5.55;70.31;95509.97;5009888;28;20465;-55
2022/11/15 02:04:48;;;;;;;63.37;30.20;;;5.70;99.90;;;5.55;70.05;95503.94;5000937;28;21017;-54
2022/11/15 02:07:18;;;;;;;67.60;28.27;;;5.70;99.90;;;5.56;70.11;95518.63;5008042;28;20561;-58
2022/11/15 02:09:45;;;;;;;67.07;30.90;;;5.70;99.90;;;5.55;70.53;95509.16;5005613;28;20782;-58
2022/11/15 02:12:13;;;;;;;58.10;29.50;;;5.70;99.90;;;5.54;70.22;95507.47;5006080;28;21087;-55
2022/11/15 02:14:41;;;;;;;55.17;29.83;;;5.70;99.90;;;5.53;70.30;95509.25;5007550;28;20572;-54
2022/11/15 02:17:27;;;;;;;58.03;28.90;;;5.70;99.90;;;5.54;70.33;95508.28;5004699;28;20457;-59
2022/11/15 02:20:41;;;;;;;69.53;32.57;;;5.70;99.90;;;5.55;70.75;95509.16;5001214;28;20481;-55
2022/11/15 02:23:50;;;;;;;57.10;30.70;;;5.70;99.90;;;5.55;70.83;95509.97;4988208;28;20972;-59
2022/11/15 02:26:52;;;;;;;65.17;30.47;;;5.70;99.90;;;5.54;70.40;95510.91;4994366;28;20458;-53
2022/11/15 02:29:25;;;;;;;57.23;30.87;;;5.70;99.90;;;5.52;70.54;95504.94;4997400;28;20492;-59
2022/11/15 02:31:57;;;;;;;59.27;29.53;;;5.70;99.90;;;5.50;70.55;95506.81;4999284;28;20484;-54
2022/11/15 02:34:29;;;;;;;56.07;29.93;;;5.70;99.90;;;5.50;70.18;95504.22;4997799;28;21012;-55
2022/11/15 02:37:03;;;;;;;58.00;30.07;;;5.70;99.90;;;5.49;70.23;95506.91;5003180;28;20512;-55
2022/11/15 02:39:35;;;;;;;54.57;27.53;;;5.60;99.90;;;5.48;70.55;95493.00;4994404;28;20540;-58
2022/11/15 02:43:56;;;;;;;55.37;29.20;;;5.70;99.90;;;5.47;69.99;95490.50;5004645;28;20469;-54
2022/11/15 02:44:51;;;;;;;56.00;27.93;;;5.70;99.90;;;5.46;70.01;95500.09;5002947;28;20877;-57
2022/11/15 02:47:19;;;;;;;66.67;29.53;;;5.60;99.90;;;5.46;70.35;95500.09;4999576;28;20458;-55
2022/11/15 02:49:49;;;;;;;52.73;28.83;;;5.70;99.90;;;5.46;70.44;95501.88;4999727;28;20544;-54
2022/11/15 02:52:17;;;;;;;60.07;28.00;;;5.60;99.90;;;5.45;69.98;95500.19;4997641;28;20489;-56
2022/11/15 02:54:53;;;;;;;59.53;30.00;;;5.60;99.90;;;5.43;70.36;95500.28;5003315;28;20552;-54
2022/11/15 02:57:21;;;;;;;58.87;29.17;;;5.60;99.90;;;5.42;70.27;95501.19;5001186;28;20457;-59
2022/11/15 03:00:08;;;;;;;52.63;27.23;;;5.60;99.90;;;5.43;70.72;95509.88;5004241;28;20477;-60
2022/11/15 03:02:49;;;;;;;50.07;24.67;;;5.60;99.90;;;5.42;70.46;95514.25;5004845;28;20453;-59
2022/11/15 03:05:21;;;;;;;58.37;27.57;;;5.60;99.90;;;5.43;70.60;95513.31;5002910;28;20589;-54
2022/11/15 03:07:54;;;;;;;46.40;26.13;;;5.60;99.90;;;5.44;70.30;95511.53;4997129;28;20460;-58
2022/11/15 03:10:25;;;;;;;53.90;28.03;;;5.60;99.90;;;5.44;70.07;95504.59;5001252;28;20957;-53
2022/11/15 03:12:56;;;;;;;54.80;26.70;;;5.60;99.90;;;5.46;71.13;95499.28;5001918;28;20985;-58
2022/11/15 03:15:27;;;;;;;50.10;27.40;;;5.60;99.90;;;5.48;71.30;95495.63;5002155;28;20482;-58
2022/11/15 03:17:58;;;;;;;52.90;26.53;;;5.60;99.90;;;5.48;70.98;95500.84;5005836;28;20994;-58
2022/11/15 03:20:26;;;;;;;51.47;27.23;;;5.70;99.90;;;5.49;71.08;95489.47;4998115;28;20481;-58
2022/11/15 03:22:53;;;;;;;45.70;27.07;;;5.70;99.90;;;5.51;71.46;95492.00;4998365;28;20545;-58
2022/11/15 03:25:23;;;;;;;50.13;28.97;;;5.70;99.90;;;5.53;71.38;95490.97;5000673;28;20981;-54
2022/11/15 03:27:53;;;;;;;48.00;25.90;;;5.70;99.90;;;5.57;71.36;95496.84;4999063;28;20461;-57
2022/11/15 03:30:21;;;;;;;51.70;27.03;;;5.70;99.90;;;5.61;71.27;95495.72;4995475;28;20473;-59
2022/11/15 03:32:51;;;;;;;52.77;26.37;;;5.80;99.90;;;5.63;71.11;95493.03;5002686;28;20512;-54
2022/11/15 03:35:21;;;;;;;43.83;25.47;;;5.80;99.90;;;5.63;70.56;95491.25;4994499;28;20629;-59
2022/11/15 03:37:53;;;;;;;51.03;26.30;;;5.80;99.90;;;5.63;70.54;95486.03;5002461;28;20911;-54
2022/11/15 03:40:22;;;;;;;63.43;28.90;;;5.80;99.90;;;5.63;70.98;95486.03;4995319;28;20501;-59
2022/11/15 03:42:55;;;;;;;54.13;29.53;;;5.80;99.90;;;5.62;71.41;95480.91;5000112;28;20477;-54
2022/11/15 03:45:25;;;;;;;67.67;30.67;;;5.80;99.90;;;5.60;71.55;95481.00;4996897;28;20484;-55
2022/11/15 03:47:55;;;;;;;61.60;27.77;;;5.80;99.90;;;5.62;71.45;95479.13;4998459;28;20469;-55
2022/11/15 03:50:24;;;;;;;79.17;29.70;;;5.80;99.90;;;5.64;71.57;95481.63;4998857;28;20564;-59
2022/11/15 03:52:51;;;;;;;69.10;29.60;;;5.80;99.90;;;5.62;72.05;95478.28;5002133;28;20494;-53
2022/11/15 03:55:19;;;;;;;73.20;29.83;;;5.80;99.90;;;5.61;71.94;95472.25;4999216;28;20524;-59
2022/11/15 03:57:47;;;;;;;94.07;28.00;;;5.80;99.90;;;5.63;72.51;95469.53;5006867;28;21167;-55
2022/11/15 04:00:15;;;;;;;122.73;30.53;;;5.80;99.90;;;5.64;72.51;95468.59;5002650;28;20485;-54
2022/11/15 04:02:42;;;;;;;74.87;29.47;;;5.80;99.90;;;5.66;73.26;95475.41;5002958;28;20453;-55
2022/11/15 04:05:09;;;;;;;77.30;31.20;;;5.80;99.90;;;5.68;72.78;95473.53;5006530;28;20505;-60
2022/11/15 04:07:38;;;;;;;80.90;31.40;;;5.80;99.90;;;5.72;72.33;95464.56;5006318;28;20458;-54
2022/11/15 04:10:07;;;;;;;66.53;29.40;;;5.80;99.90;;;5.75;72.97;95459.16;5006152;28;20465;-59
2022/11/15 04:12:36;;;;;;;70.17;29.10;;;5.90;99.90;;;5.82;72.97;95461.41;5003457;28;20489;-53
2022/11/15 04:15:10;;;;;;;65.47;27.97;;;6.00;99.90;;;5.86;72.71;95465.50;5002028;28;20490;-58
2022/11/15 04:17:39;;;;;;;74.97;30.70;;;6.00;99.90;;;5.90;72.94;95466.97;4997224;28;20461;-54
2022/11/15 04:25:42;;;;;;;72.13;32.73;;;6.10;99.90;;;6.02;72.39;95465.38;5000449;28;21004;-60
2022/11/15 04:28:09;;;;;;;74.80;32.60;;;6.10;99.90;;;6.06;71.81;95461.66;4996350;28;20453;-55
2022/11/15 04:30:36;;;;;;;77.07;33.90;;;6.20;99.90;;;6.08;71.68;95460.59;4995494;28;20475;-55
2022/11/15 04:33:04;;;;;;;73.50;33.27;;;6.20;99.90;;;6.12;72.08;95455.19;5002353;28;20527;-55
2022/11/15 04:35:31;;;;;;;84.07;34.30;;;6.20;99.90;;;6.14;71.86;95459.38;4998733;28;21021;-59
2022/11/15 04:37:59;;;;;;;94.73;35.90;;;6.30;99.90;;;6.15;71.80;95444.53;4997331;28;20461;-59
2022/11/15 04:40:26;;;;;;;93.57;34.63;;;6.30;99.90;;;6.17;71.40;95458.38;4996532;28;20904;-55
2022/11/15 04:42:53;;;;;;;80.13;34.60;;;6.30;99.90;;;6.19;71.75;95456.47;5001841;28;21115;-54
2022/11/15 04:45:21;;;;;;;78.30;35.23;;;6.40;99.90;;;6.19;70.89;95456.47;4996268;28;20845;-58
2022/11/15 04:47:48;;;;;;;90.77;37.23;;;6.30;99.90;;;6.21;71.12;95457.22;5003636;28;20466;-55
2022/11/15 04:50:16;;;;;;;89.07;37.57;;;6.30;99.90;;;6.20;70.72;95455.56;4991417;28;20486;-57
2022/11/15 04:52:44;;;;;;;110.10;39.93;;;6.30;99.90;;;6.21;70.30;95459.81;5003139;28;20485;-58
2022/11/15 04:55:12;;;;;;;94.03;39.27;;;6.30;99.90;;;6.22;70.77;95466.72;5005717;28;20470;-57
2022/11/15 04:57:40;;;;;;;94.93;38.50;;;6.30;99.90;;;6.21;70.18;95470.28;4996600;28;20461;-57
2022/11/15 05:00:09;;;;;;;102.33;40.10;;;6.40;99.90;;;6.20;69.98;95469.44;5001389;28;20853;-57
2022/11/15 05:05:21;;;;;;;87.97;39.07;;;6.30;99.90;;;6.18;69.73;95475.69;4965017;28;21012;-55
2022/11/15 05:07:48;;;;;;;107.60;38.17;;;6.30;99.90;;;6.16;69.43;95474.97;5002536;28;20449;-57
2022/11/15 05:10:17;;;;;;;97.67;39.10;;;6.30;99.90;;;6.15;69.92;95475.88;5000450;28;20478;-56
2022/11/15 05:12:44;;;;;;;106.20;39.93;;;6.30;99.90;;;6.14;70.10;95475.06;5003108;28;20577;-58
2022/11/15 05:15:12;;;;;;;110.83;37.03;;;6.30;99.90;;;6.13;69.82;95468.16;5001030;28;20485;-57
2022/11/15 05:17:39;;;;;;;97.97;35.83;;;6.30;99.90;;;6.09;69.43;95464.91;5001602;28;20526;-57
2022/11/15 05:20:09;;;;;;;101.73;36.33;;;6.20;99.90;;;6.06;69.96;95459.88;5005178;28;20800;-57
2022/11/15 05:22:37;;;;;;;93.90;38.53;;;6.20;99.90;;;6.04;70.00;95461.75;5005052;28;20500;-56
2022/11/15 05:25:06;;;;;;;120.43;39.30;;;6.20;99.90;;;6.01;70.00;95456.72;5005332;28;20489;-57
2022/11/15 05:27:34;;;;;;;111.77;38.30;;;6.20;99.90;;;5.99;70.21;95455.13;4999324;28;20470;-58
2022/11/15 05:30:02;;;;;;;92.90;35.50;;;6.20;99.90;;;5.97;70.40;95452.63;5005350;28;20470;-56
2022/11/15 05:32:30;;;;;;;85.77;31.80;;;6.10;99.90;;;5.96;69.92;95447.47;5004516;28;20592;-56
2022/11/15 05:34:57;;;;;;;88.87;31.87;;;6.10;99.90;;;5.93;70.32;95456.31;5004633;28;20997;-58
2022/11/15 05:37:25;;;;;;;85.87;32.30;;;6.10;99.90;;;5.91;70.50;95459.03;5004984;28;20960;-55
2022/11/15 05:39:52;;;;;;;88.63;34.20;;;6.10;99.90;;;5.90;70.07;95456.50;5004542;28;20978;-58
2022/11/15 05:42:19;;;;;;;84.10;31.33;;;6.10;99.90;;;5.90;70.45;95457.38;4996958;28;20457;-55
2022/11/15 05:44:49;;;;;;;67.57;29.63;;;6.00;99.90;;;5.90;70.30;95466.97;5004711;28;20561;-57
2022/11/15 05:47:19;;;;;;;95.40;31.60;;;6.10;99.90;;;5.90;70.09;95462.59;5004941;28;20474;-53
2022/11/15 05:49:47;;;;;;;82.43;31.53;;;6.00;99.90;;;5.91;70.95;95460.81;5003618;28;20996;-57
2022/11/15 05:52:15;;;;;;;89.60;32.07;;;6.10;99.90;;;5.91;70.55;95468.66;5004916;28;20536;-53
2022/11/15 05:54:43;;;;;;;79.50;32.40;;;6.10;99.90;;;5.89;70.77;95468.75;5005397;28;20982;-59
2022/11/15 05:57:10;;;;;;;72.40;30.77;;;6.10;99.90;;;5.92;70.79;95471.16;5005426;28;20453;-59
2022/11/15 05:59:38;;;;;;;79.60;30.33;;;6.10;99.90;;;5.93;70.82;95475.47;5004663;28;20882;-54
2022/11/15 06:02:06;;;;;;;80.30;32.63;;;6.00;99.90;;;5.93;70.45;95477.22;5004588;28;20848;-55
2022/11/15 06:04:33;;;;;;;89.93;32.97;;;6.10;99.90;;;5.95;70.97;95482.34;5003964;28;20524;-61
2022/11/15 06:07:01;;;;;;;77.53;31.03;;;6.10;99.90;;;5.96;71.10;95476.19;5004945;28;20830;-60
2022/11/15 06:09:28;;;;;;;83.93;32.07;;;6.10;99.90;;;5.97;70.34;95472.69;5003468;28;20470;-59
2022/11/15 06:11:56;;;;;;;81.83;32.50;;;6.10;99.90;;;5.97;70.47;95470.06;5002150;28;20449;-60
2022/11/15 06:14:23;;;;;;;81.00;32.00;;;6.10;99.90;;;5.99;70.87;95471.63;5004789;28;20489;-55
2022/11/15 06:16:50;;;;;;;99.57;32.60;;;6.10;99.90;;;5.98;70.78;95477.81;5005200;28;20604;-54
2022/11/15 06:19:19;;;;;;;84.80;31.70;;;6.10;99.90;;;6.02;71.07;95470.63;5008453;28;20520;-58
2022/11/15 06:21:46;;;;;;;89.47;33.47;;;6.20;99.90;;;6.03;71.35;95473.13;5008293;28;20461;-60
2022/11/15 06:24:14;;;;;;;86.60;29.20;;;6.20;99.90;;;6.06;70.79;95470.31;5007943;28;20523;-59
2022/11/15 06:26:41;;;;;;;86.70;31.17;;;6.20;99.90;;;6.07;71.52;95469.41;5003376;28;20831;-54
2022/11/15 06:29:08;;;;;;;89.07;30.43;;;6.20;99.90;;;6.10;71.71;95473.56;5008033;28;20990;-59
2022/11/15 06:31:36;;;;;;;78.77;30.70;;;6.20;99.90;;;6.14;71.38;95464.59;5007573;28;20449;-59
2022/11/15 06:34:03;;;;;;;92.43;32.57;;;6.30;99.90;;;6.15;71.39;95460.22;5007598;28;20497;-53
2022/11/15 06:36:32;;;;;;;91.33;31.93;;;6.30;99.90;;;6.18;71.44;95466.09;5008040;28;20941;-54
2022/11/15 06:38:59;;;;;;;87.30;31.27;;;6.30;99.90;;;6.21;71.82;95468.50;5003968;28;20453;-59
2022/11/15 06:41:26;;;;;;;88.47;32.57;;;6.30;99.90;;;6.24;71.37;95470.94;5007739;28;20941;-58
2022/11/15 06:43:54;;;;;;;89.43;31.43;;;6.40;99.90;;;6.28;71.83;95466.34;5007662;28;20457;-55
2022/11/15 06:46:21;;;;;;;77.10;30.70;;;6.40;99.90;;;6.31;71.38;95463.53;5007849;28;20585;-58
2022/11/15 06:48:49;;;;;;;100.27;34.37;;;6.50;99.90;;;6.35;71.75;95462.41;5007996;28;20667;-59
2022/11/15 06:51:16;;;;;;;98.77;32.47;;;6.50;99.90;;;6.36;71.99;95458.84;5007622;28;20961;-58
2022/11/15 06:53:45;;;;;;;88.07;34.20;;;6.50;99.90;;;6.38;72.25;95456.97;5007613;28;20551;-55
2022/11/15 06:56:12;;;;;;;93.13;33.37;;;6.50;99.90;;;6.40;72.37;95460.31;5007230;28;20454;-58
2022/11/15 06:58:39;;;;;;;83.83;32.07;;;6.50;99.90;;;6.44;72.30;95467.03;5003646;28;20461;-55
2022/11/15 07:01:08;;;;;;;91.10;32.13;;;6.60;99.90;;;6.48;72.28;95464.22;5003152;28;20464;-59
2022/11/15 07:03:36;;;;;;;101.87;33.20;;;6.60;99.90;;;6.49;71.58;95456.28;5002330;28;20460;-60
2022/11/15 07:06:04;;;;;;;82.90;32.43;;;6.60;99.90;;;6.50;72.33;95457.09;5002614;28;20473;-58
2022/11/15 07:08:31;;;;;;;96.87;32.80;;;6.60;99.90;;;6.51;71.93;95462.22;5004661;28;20473;-60
2022/11/15 07:11:01;;;;;;;81.07;31.50;;;6.70;99.90;;;6.53;72.01;95459.53;4999587;28;20469;-59
2022/11/15 07:13:29;;;;;;;76.33;30.93;;;6.70;99.90;;;6.52;72.04;95453.47;4999633;28;20560;-54
2022/11/15 07:15:56;;;;;;;81.70;31.10;;;6.70;99.90;;;6.54;72.13;95450.75;5005217;28;20482;-55
2022/11/15 07:18:23;;;;;;;68.67;27.37;;;6.70;99.90;;;6.57;72.04;95450.56;5006975;28;20545;-59
2022/11/15 07:20:51;;;;;;;63.50;28.40;;;6.70;99.90;;;6.58;72.13;95450.44;5006887;28;21001;-59
2022/11/15 07:23:18;;;;;;;78.27;31.17;;;6.70;99.90;;;6.61;72.07;95452.81;5007162;28;20453;-59
2022/11/15 07:25:45;;;;;;;58.83;26.53;;;6.70;99.90;;;6.60;72.02;95461.63;5005932;28;20536;-54
2022/11/15 07:28:14;;;;;;;70.03;28.80;;;6.70;99.90;;;6.64;72.80;95467.47;5003270;28;20565;-58
2022/11/15 07:30:41;;;;;;;62.03;27.70;;;6.70;99.90;;;6.67;72.09;95467.28;5006677;28;20861;-54
2022/11/15 07:33:09;;;;;;;67.50;28.83;;;6.80;99.90;;;6.71;72.74;95471.38;5005723;28;20485;-55
2022/11/15 07:35:36;;;;;;;69.63;28.00;;;6.80;99.90;;;6.75;72.51;95462.38;5006661;28;20932;-60
2022/11/15 07:38:03;;;;;;;61.80;27.73;;;6.90;99.90;;;6.78;72.06;95462.16;5006812;28;21000;-59
2022/11/15 07:40:32;;;;;;;76.07;30.03;;;6.90;99.90;;;6.84;72.56;95452.25;5006552;28;20516;-59
2022/11/15 07:43:02;;;;;;;71.47;31.40;;;7.00;99.90;;;6.89;72.35;95463.25;5006584;28;20495;-59
2022/11/15 07:45:33;;;;;;;66.20;29.90;;;7.00;99.90;;;6.93;72.11;95459.50;5006548;28;20528;-55
2022/11/15 07:48:00;;;;;;;85.83;32.93;;;7.00;99.90;;;6.95;72.25;95463.66;5006558;28;20441;-58
2022/11/15 07:50:29;;;;;;;74.70;30.80;;;7.00;99.90;;;6.99;72.51;95466.94;5006729;28;20474;-55
2022/11/15 07:52:56;;;;;;;86.73;35.13;;;7.10;99.90;;;7.02;72.51;95464.09;5006452;28;20557;-55
2022/11/15 07:55:24;;;;;;;90.27;35.33;;;7.10;99.90;;;7.07;72.87;95455.94;5006400;28;20481;-55
2022/11/15 07:57:51;;;;;;;91.63;34.20;;;7.10;99.90;;;7.11;72.12;95462.63;5006132;28;20467;-59
2022/11/15 08:00:19;;;;;;;81.33;32.03;;;7.20;99.90;;;7.15;72.08;95459.69;5006511;28;20894;-60
2022/11/15 08:02:48;;;;;;;83.20;32.17;;;7.20;99.90;;;7.17;72.33;95464.81;5004959;28;20454;-59
2022/11/15 08:05:15;;;;;;;67.77;29.00;;;7.30;99.90;;;7.23;72.22;95463.59;5006211;28;20549;-56
2022/11/15 08:07:43;;;;;;;74.60;29.20;;;7.30;99.90;;;7.25;71.68;95459.06;5006207;28;20493;-59
2022/11/15 08:10:11;;;;;;;70.23;29.57;;;7.30;99.90;;;7.27;72.03;95455.41;5005087;28;20477;-56
2022/11/15 08:12:39;;;;;;;68.47;29.93;;;7.40;99.90;;;7.30;72.21;95454.38;4999146;28;20453;-54
2022/11/15 08:15:07;;;;;;;68.10;29.13;;;7.40;99.90;;;7.32;71.35;95450.69;5006165;28;20501;-53
2022/11/15 08:17:35;;;;;;;74.40;30.13;;;7.40;99.90;;;7.33;71.69;95447.16;5004096;28;20570;-59
2022/11/15 08:20:04;;;;;;;74.73;31.83;;;7.40;99.90;;;7.36;71.53;95446.94;5002432;28;20480;-53
2022/11/15 08:22:32;;;;;;;74.20;31.27;;;7.50;99.90;;;7.39;71.32;95442.44;5005868;28;20556;-58
2022/11/15 08:24:59;;;;;;;68.37;30.30;;;7.50;99.90;;;7.43;71.39;95446.50;5006307;28;20485;-59
2022/11/15 08:27:26;;;;;;;59.57;28.30;;;7.50;99.90;;;7.46;71.34;95435.84;5000992;28;20493;-55
2022/11/15 08:29:53;;;;;;;67.13;30.87;;;7.50;99.90;;;7.49;71.63;95441.69;5005812;28;20535;-60
2022/11/15 08:32:21;;;;;;;67.43;30.97;;;7.60;99.90;;;7.50;71.00;95440.75;5004993;28;20457;-58
2022/11/15 08:34:48;;;;;;;67.07;31.07;;;7.60;99.90;;;7.51;71.70;95439.81;5005293;28;20497;-60
2022/11/15 08:37:17;;;;;;;70.80;31.77;;;7.60;99.90;;;7.53;71.40;95430.06;5005015;28;20465;-59
2022/11/15 08:39:44;;;;;;;71.60;32.73;;;7.60;99.90;;;7.56;71.54;95436.03;5005312;28;20539;-55
2022/11/15 08:42:12;;;;;;;81.40;33.93;;;7.60;99.90;;;7.58;71.06;95434.16;5004438;28;20445;-58
2022/11/15 08:44:40;;;;;;;81.20;32.90;;;7.70;99.90;;;7.59;70.90;95428.81;5005527;28;20535;-55
2022/11/15 08:47:07;;;;;;;77.30;34.03;;;7.70;99.90;;;7.61;71.04;95431.31;5003109;28;21009;-56
2022/11/15 08:49:35;;;;;;;77.20;33.83;;;7.70;99.90;;;7.64;71.46;95431.09;5002007;28;20501;-59
2022/11/15 08:52:02;;;;;;;71.30;35.27;;;7.70;99.90;;;7.64;70.83;95425.88;4999453;28;21078;-56
2022/11/15 08:54:31;;;;;;;76.73;34.60;;;7.70;99.90;;;7.64;71.20;95416.22;5002378;28;20580;-55
2022/11/15 08:56:59;;;;;;;87.20;36.27;;;7.80;99.90;;;7.67;71.55;95425.66;4998207;28;20451;-59
2022/11/15 08:59:26;;;;;;;79.37;35.53;;;7.80;99.90;;;7.69;71.34;95414.09;5001694;28;20926;-58
2022/11/15 09:01:53;;;;;;;92.97;39.90;;;7.80;99.90;;;7.71;70.96;95414.00;4997680;28;20462;-56
2022/11/15 09:04:21;;;;;;;93.57;40.47;;;7.80;99.90;;;7.73;70.92;95414.75;5000090;28;20486;-55
2022/11/15 09:06:48;;;;;;;113.57;45.20;;;7.80;99.90;;;7.70;70.43;95413.16;4997624;28;20453;-59
2022/11/15 09:09:16;;;;;;;95.33;41.73;;;7.80;99.90;;;7.68;70.39;95404.59;5004428;28;20479;-55
2022/11/15 09:11:44;;;;;;;120.43;47.97;;;7.80;99.90;;;7.66;70.81;95403.03;4998134;28;20918;-54
2022/11/15 09:14:12;;;;;;;106.53;45.07;;;7.70;99.90;;;7.66;70.94;95397.78;4998622;28;20489;-54
2022/11/15 09:16:39;;;;;;;123.40;44.93;;;7.80;99.90;;;7.67;71.40;95397.69;5001946;28;20540;-59
2022/11/15 09:19:06;;;;;;;112.57;49.57;;;7.80;99.90;;;7.69;71.54;95398.41;5005332;28;20477;-55
2022/11/15 09:21:34;;;;;;;128.30;50.27;;;7.80;99.90;;;7.75;71.22;95397.13;5005526;28;20541;-55
2022/11/15 09:24:02;;;;;;;131.90;52.80;;;7.90;99.90;;;7.78;71.09;95394.28;5005078;28;20449;-59
2022/11/15 09:26:29;;;;;;;124.93;51.20;;;7.80;99.90;;;7.79;70.61;95379.41;4999955;28;20461;-54
2022/11/15 09:28:57;;;;;;;137.37;54.30;;;7.90;99.90;;;7.82;70.42;95380.06;5004915;28;20974;-60
2022/11/15 09:31:25;;;;;;;131.83;53.00;;;7.90;99.90;;;7.85;70.87;95371.13;5005213;28;20877;-59
2022/11/15 09:33:53;;;;;;;137.77;53.47;;;7.90;99.90;;;7.89;70.98;95375.19;5003533;28;20488;-59
2022/11/15 09:36:20;;;;;;;148.03;59.80;;;7.90;99.90;;;7.90;70.51;95374.25;5001125;28;20465;-58
2022/11/15 09:38:47;;;;;;;157.47;61.03;;;7.90;99.90;;;7.89;70.57;95373.41;5004713;28;20469;-58
2022/11/15 09:41:52;;;;;;;144.13;60.43;;;8.00;99.90;;;7.91;70.82;95365.44;5004999;28;21025;-58
2022/11/15 09:44:41;;;;;;;149.90;60.43;;;8.00;99.90;;;7.93;70.41;95363.53;4998364;28;20481;-57
2022/11/15 09:47:29;;;;;;;170.83;64.03;;;8.00;99.90;;;7.94;70.61;95359.97;5002482;28;20878;-54
2022/11/15 09:49:58;;;;;;;160.80;61.50;;;8.00;99.90;;;7.93;70.03;95360.91;5003957;28;20543;-54
2022/11/15 09:52:26;;;;;;;158.07;62.30;;;8.00;99.90;;;7.89;70.18;95351.63;5009139;28;20465;-56
2022/11/15 09:54:53;;;;;;;175.70;60.80;;;8.00;99.90;;;7.86;70.29;95346.59;5008694;28;20531;-59
2022/11/15 09:57:31;;;;;;;154.40;58.10;;;7.90;99.90;;;7.84;70.79;95340.66;5008634;28;20453;-55
2022/11/15 10:00:09;;;;;;;150.87;56.47;;;8.00;99.90;;;7.79;70.11;95338.38;5008783;28;20507;-54
2022/11/15 10:02:54;;;;;;;140.57;55.10;;;7.90;99.90;;;7.75;70.42;95329.06;5008512;28;20499;-55
2022/11/15 10:05:23;;;;;;;151.03;59.77;;;7.90;99.90;;;7.74;70.20;95326.53;5005894;28;20989;-57
2022/11/15 10:07:56;;;;;;;137.63;56.97;;;7.90;99.90;;;7.74;70.77;95327.38;5008198;28;20553;-58
2022/11/15 10:10:28;;;;;;;148.77;59.13;;;7.90;99.90;;;7.79;71.01;95329.66;5002789;28;20492;-59
2022/11/15 10:12:55;;;;;;;147.80;56.57;;;7.90;99.90;;;7.84;70.73;95324.94;5003449;28;20516;-57
2022/11/15 10:15:24;;;;;;;150.83;56.93;;;7.90;99.90;;;7.87;70.51;95322.94;5008294;28;21018;-58
2022/11/15 10:18:18;;;;;;;142.27;57.33;;;7.90;99.90;;;7.92;70.51;95319.13;5005770;28;20453;-56
2022/11/15 10:20:50;;;;;;;137.57;56.20;;;8.00;99.90;;;7.98;70.86;95318.66;5006344;28;20481;-60
2022/11/15 10:23:19;;;;;;;163.57;62.30;;;8.10;99.90;;;8.03;70.59;95314.78;5008182;28;20794;-54
2022/11/15 10:25:47;;;;;;;146.37;57.67;;;8.10;99.90;;;8.08;70.45;95312.63;5006448;28;21009;-61
2022/11/15 10:28:18;;;;;;;148.17;58.40;;;8.20;99.90;;;8.18;71.00;95310.19;5002136;28;20465;-56
2022/11/15 10:30:48;;;;;;;159.97;59.60;;;8.20;99.90;;;8.29;71.21;95303.28;5008029;28;20480;-57
2022/11/15 10:33:25;;;;;;;155.27;61.87;;;8.30;99.90;;;8.40;70.65;95303.34;5007081;28;20453;-58
2022/11/15 10:36:19;;;;;;;168.50;64.30;;;8.40;99.90;;;8.48;70.01;95293.13;5007994;28;20539;-59